ADDS METAR Data INFO
IDs: Format: Raw Decoded Include TAF

Data at: 0404 UTC 19 Jul 2018

KFGN 190355Z AUTO 00000KT 5SM HZ CLR 24/21 A2987 RMK AO2
KFGN 190335Z AUTO 15005KT 7SM CLR 23/19 A2987 RMK AO2
KFGN 190315Z AUTO 13003KT 7SM CLR 23/18 A2987 RMK AO2
KFGN 190235Z AUTO 13003KT 7SM CLR 23/18 A2987 RMK AO2
KFGN 190155Z AUTO 00000KT 10SM CLR 23/16 A2987 RMK AO2
KFGN 190115Z AUTO 00000KT 10SM CLR 24/16 A2988 RMK AO2
KFGN 190035Z AUTO 15003KT 10SM CLR 25/16 A2989 RMK AO2
KFGN 182355Z AUTO 15003KT 10SM CLR 25/15 A2991 RMK AO2
KFGN 182315Z AUTO 15004KT 10SM CLR 25/13 A2991 RMK AO2
KFGN 182235Z AUTO 15005KT 10SM CLR 25/14 A2992 RMK AO2
KFGN 182155Z AUTO 16007KT 10SM CLR 25/14 A2994 RMK AO2
KFGN 182115Z AUTO 15006KT 10SM CLR 25/14 A2995 RMK AO2
KFGN 182035Z AUTO 15007KT 10SM CLR 24/14 A2996 RMK AO2
KFGN 181955Z AUTO 15007KT 10SM CLR 24/15 A2997 RMK AO2
KFGN 181915Z AUTO 16007KT 10SM CLR 24/16 A2998 RMK AO2
KFGN 181835Z AUTO 16008KT 10SM CLR 23/16 A2998 RMK AO2
KFGN 181755Z AUTO 16008KT 10SM CLR 25/15 A2999 RMK AO2
KFGN 181715Z AUTO 16008KT 10SM CLR 24/16 A3000 RMK AO2
KFGN 181635Z AUTO 17005KT 10SM CLR 24/16 A3001 RMK AO2
KFGN 181555Z AUTO 17005KT 10SM CLR 23/17 A3002 RMK AO2
KFGN 181509Z AUTO 17005KT 10SM CLR 24/16 A3003 RMK AO2
KFGN 181437Z AUTO 17004KT 10SM CLR 24/15 A3003 RMK AO2
KFGN 181409Z AUTO 00000KT 10SM CLR 23/14 A3004 RMK AO2
KFGN 181351Z AUTO 00000KT 23/14 A3004 RMK AO2 PWINO
KFGN 181345Z AUTO 20003KT 10SM CLR 21/14 A3005 RMK AO2
KFGN 181335Z AUTO 19003KT 10SM CLR 21/14 A3005 RMK AO2
KFGN 181315Z AUTO 21003KT 10SM CLR 20/15 A3005 RMK AO2
KFGN 181255Z AUTO 20004KT 10SM CLR 19/14 A3005 RMK AO2
KFGN 181238Z AUTO 21004KT 18/14 A3005 RMK AO2 PWINO
KFGN 181215Z AUTO 20004KT 10SM CLR 18/14 A3006 RMK AO2
KFGN 181155Z AUTO 21004KT 10SM CLR 17/14 A3005 RMK AO2
KFGN 181135Z AUTO 21004KT 10SM CLR 17/14 A3005 RMK AO2
KFGN 181115Z AUTO 22004KT 10SM CLR 17/14 A3006 RMK AO2
KFGN 181055Z AUTO 21005KT 10SM CLR 17/13 A3005 RMK AO2
KFGN 181035Z AUTO 22003KT 10SM CLR 17/14 A3005 RMK AO2
KFGN 181015Z AUTO 23004KT 10SM CLR 18/13 A3005 RMK AO2
KFGN 180955Z AUTO 24005KT 10SM CLR 17/12 A3005 RMK AO2
KFGN 180935Z AUTO 24006KT 10SM CLR 18/12 A3005 RMK AO2
KFGN 180915Z AUTO 24006KT 10SM CLR 19/13 A3005 RMK AO2
KFGN 180855Z AUTO 25007KT 10SM CLR 19/13 A3005 RMK AO2
KFGN 180835Z AUTO 25008KT 10SM CLR 19/13 A3005 RMK AO2
KFGN 180815Z AUTO 25006KT 10SM CLR 19/13 A3005 RMK AO2
KFGN 180755Z AUTO 26008KT 10SM CLR 19/13 A3005 RMK AO2
KFGN 180735Z AUTO 23005KT 10SM CLR 18/13 A3005 RMK AO2
KFGN 180715Z AUTO 24005KT 10SM CLR 18/13 A3005 RMK AO2
KFGN 180655Z AUTO 25007KT 10SM CLR 19/13 A3006 RMK AO2
KFGN 180635Z AUTO 25006KT 10SM CLR 19/13 A3006 RMK AO2
KFGN 180615Z AUTO 26007KT 10SM CLR 19/13 A3006 RMK AO2
KFGN 180555Z AUTO 26007KT 10SM CLR 19/13 A3006 RMK AO2
KFGN 180535Z AUTO 27008KT 10SM CLR 20/13 A3006 RMK AO2
KFGN 180515Z AUTO 26009KT 10SM CLR 20/13 A3007 RMK AO2
KFGN 180455Z AUTO 25008KT 10SM CLR 20/13 A3006 RMK AO2
KFGN 180435Z AUTO 25008KT 10SM CLR 19/13 A3006 RMK AO2
KFGN 180415Z AUTO 24008KT 10SM CLR 20/13 A3006 RMK AO2
KFGN 180355Z AUTO 24008KT 10SM CLR 20/13 A3006 RMK AO2
KFGN 180335Z AUTO 24008KT 10SM CLR 21/14 A3006 RMK AO2
KFGN 180315Z AUTO 23007KT 10SM CLR 21/14 A3006 RMK AO2
KFGN 180255Z AUTO 22005KT 10SM CLR 21/14 A3006 RMK AO2
KFGN 180235Z AUTO 22003KT 10SM CLR 21/14 A3006 RMK AO2
KFGN 180215Z AUTO 00000KT 10SM CLR 22/14 A3006 RMK AO2
KFGN 180155Z AUTO 21004KT 10SM CLR 22/14 A3006 RMK AO2
KFGN 180135Z AUTO 20003KT 10SM CLR 23/13 A3006 RMK AO2
KFGN 180115Z AUTO 00000KT 10SM CLR 23/13 A3006 RMK AO2
KFGN 180055Z AUTO 00000KT 10SM CLR 23/13 A3007 RMK AO2
KFGN 180035Z AUTO 17004KT 10SM CLR 23/14 A3007 RMK AO2
KFGN 180015Z AUTO 16005KT 10SM CLR 23/14 A3007 RMK AO2
KFGN 172355Z AUTO 17005KT 10SM CLR 22/14 A3007 RMK AO2
KFGN 172335Z AUTO 16005KT 10SM CLR 22/14 A3008 RMK AO2
KFGN 172315Z AUTO 17005KT 10SM CLR 22/14 A3008 RMK AO2
KFGN 172255Z AUTO 17005KT 10SM CLR 23/13 A3008 RMK AO2
KFGN 172235Z AUTO 17004KT 10SM CLR 23/13 A3009 RMK AO2
KFGN 172215Z AUTO 17004KT 10SM CLR 23/14 A3009 RMK AO2
KFGN 172155Z AUTO 17004KT 10SM CLR 23/13 A3010 RMK AO2
KFGN 172135Z AUTO 16006KT 10SM CLR 22/13 A3011 RMK AO2
KFGN 172115Z AUTO 16006KT 10SM CLR 22/12 A3011 RMK AO2
KFGN 172055Z AUTO 16005KT 10SM CLR 22/12 A3011 RMK AO2
KFGN 172035Z AUTO 16005KT 10SM CLR 22/12 A3012 RMK AO2
KFGN 172015Z AUTO 17003KT 10SM CLR 22/12 A3012 RMK AO2
KFGN 171955Z AUTO 16006KT 10SM CLR 21/12 A3012 RMK AO2
KFGN 171935Z AUTO 17005KT 10SM CLR 22/12 A3012 RMK AO2
KFGN 171915Z AUTO 15005KT 10SM SCT048 21/11 A3013 RMK AO2
KFGN 171855Z AUTO 04004KT 10SM SCT048 21/11 A3013 RMK AO2
KFGN 171835Z AUTO 03006KT 10SM CLR 21/10 A3014 RMK AO2
KFGN 171815Z AUTO 36004KT 10SM CLR 20/10 A3014 RMK AO2
KFGN 171755Z AUTO 36004KT 10SM CLR 19/10 A3014 RMK AO2
KFGN 171735Z AUTO 36003KT 10SM CLR 19/10 A3015 RMK AO2
KFGN 171715Z AUTO 01004KT 10SM CLR 19/10 A3015 RMK AO2
KFGN 171655Z AUTO 00000KT 10SM CLR 19/09 A3015 RMK AO2
KFGN 171635Z AUTO 00000KT 10SM CLR 19/10 A3016 RMK AO2
KFGN 171615Z AUTO 32004KT 7SM CLR 18/10 A3016 RMK AO2